Latest Weather Observations for Bega

IDN60801

Issued at 5:05 pm EST Thursday 18 September 2014 (issued every 30 minutes, with the page automatically refreshed every 10 minutes)

About weather observations | Map of weather stations | Latest weather observations for NSW | Other Formats
Station Details ID: 069139 Name: BEGA AWS Lat: -36.67 Lon: 149.82 Height: 41.0 m
Data from the previous 72 hours. | See also: Recent months at Bega
Date/Time
EST
Temp
°C
App
Temp
°C
Dew
Point
Rel
Hum
%
Delta-T
°C
Wind Press
QNH
hPa
Press
MSL
hPa
Rain
since 9 am
mm
Dir
 
Spd
km/h
Gust
km/h
Spd
kts
Gust
kts
18/05:00pm 14.0 7.2 3.2 48 4.8 SSW 28 39 15 21 1018.6 1018.6 0.4
18/04:30pm 15.0 9.4 1.5 40 5.9 SW 20 24 11 13 1018.2 1018.2 0.4
18/04:00pm 15.7 9.4 1.8 39 6.1 SW 24 32 13 17 1017.7 1017.7 0.4
18/03:30pm 17.2 11.9 2.0 36 6.8 WSW 19 32 10 17 1017.5 1017.5 0.4
18/03:00pm 16.2 9.1 1.5 37 6.5 SW 28 48 15 26 1017.5 1017.5 0.4
18/02:50pm 16.1 8.9 1.0 36 6.6 SW 28 46 15 25 1017.3 1017.3 0.4
18/02:30pm 16.4 10.8 1.3 36 6.6 WSW 20 28 11 15 1017.4 1017.4 0.4
18/02:00pm 15.2 7.7 1.0 38 6.1 SW 30 43 16 23 1017.5 1017.5 0.4
18/01:30pm 16.4 8.5 0.9 35 6.8 WSW 32 44 17 24 1017.3 1017.3 0.4
18/01:00pm 15.6 7.6 0.6 36 6.4 WSW 32 50 17 27 1017.4 1017.4 0.4
18/12:59pm 15.7 7.7 0.7 36 6.5 WSW 32 50 17 27 1017.4 1017.4 0.4
18/12:30pm 14.9 6.8 0.7 38 6.1 WSW 33 44 18 24 1017.4 1017.4 0.4
18/12:02pm 15.7 7.2 0.7 36 6.5 SW 35 54 19 29 1017.6 1017.6 0.4
18/12:00pm 16.1 8.1 1.8 38 6.3 SW 33 50 18 27 1017.5 1017.5 0.4
18/11:30am 15.4 8.3 1.5 39 6.1 WSW 28 46 15 25 1017.6 1017.6 0.4
18/11:25am 15.4 7.9 1.2 38 6.2 WSW 30 48 16 26 1017.8 1017.8 0.4
18/11:00am 14.7 6.5 0.5 38 6.0 WSW 33 48 18 26 1017.7 1017.7 0.4
18/10:30am 14.2 6.3 1.2 41 5.6 WSW 32 44 17 24 1017.9 1017.9 0.4
18/10:01am 13.8 6.8 1.8 44 5.2 SW 28 46 15 25 1018.2 1018.2 0.4
18/10:00am 13.8 6.4 1.8 44 5.2 SW 30 46 16 25 1018.2 1018.2 0.4
18/09:30am 13.0 6.0 1.7 46 4.9 WSW 28 39 15 21 1017.8 - 0.4
18/08:30am 12.4 5.2 0.8 45 4.9 WSW 28 52 15 28 1017.7 - 0.2
18/08:29am 12.4 5.3 1.1 46 4.8 WSW 28 52 15 28 1017.7 - 0.2
18/08:00am 11.8 5.1 1.2 48 4.5 SW 26 43 14 23 1017.0 - 0.2
18/07:30am 11.0 5.4 1.5 52 4.0 SW 20 35 11 19 1016.9 - 0.2
18/07:00am 10.8 5.2 1.4 52 3.9 WSW 20 30 11 16 1016.7 - 0.2
18/06:30am 10.5 4.5 1.3 53 3.8 WSW 22 35 12 19 1016.2 - 0.2
18/06:00am 9.7 4.1 1.1 55 3.5 SW 20 37 11 20 1016.1 1016.2 0.2
18/05:30am 9.8 4.7 0.7 53 3.7 WSW 17 32 9 17 1015.5 - 0.2
18/05:00am 9.6 4.1 0.5 53 3.7 WSW 19 28 10 15 1015.3 - 0.2
18/04:30am 9.4 4.2 0.3 53 3.7 WSW 17 24 9 13 1015.1 - 0.2
18/04:00am 9.5 3.7 0.1 52 3.8 WSW 20 28 11 15 1014.9 - 0.2
18/03:30am 9.8 3.3 0.2 51 3.9 WSW 24 32 13 17 1014.8 - 0.2
18/03:00am 9.7 3.6 0.1 51 3.9 WSW 22 33 12 18 1014.7 1014.7 0.2
18/02:30am 9.5 3.8 0.4 53 3.7 WSW 20 30 11 16 1014.7 - 0.2
18/02:00am 9.5 3.8 0.7 54 3.6 WSW 20 26 11 14 1014.7 - 0.2
18/01:30am 9.7 3.6 0.3 52 3.8 WSW 22 35 12 19 1014.8 - 0.2
18/01:00am 9.9 2.7 0.5 52 3.8 WSW 28 41 15 22 1015.0 - 0.2
18/12:30am 8.6 3.5 0.6 57 3.2 SW 17 26 9 14 1015.2 - 0.2
18/12:00am 9.6 4.0 0.2 52 3.8 WSW 19 26 10 14 1015.2 1015.3 0.2
 
Date/Time
EST
Temp
°C
App
Temp
°C
Dew
Point
Rel
Hum
%
Delta-T
°C
Wind Press
QNH
hPa
Press
MSL
hPa
Rain
since 9 am
mm
Dir
 
Spd
km/h
Gust
km/h
Spd
kts
Gust
kts
17/11:30pm 9.9 3.8 0.3 51 3.9 WSW 22 39 12 21 1014.9 - 0.2
17/11:00pm 10.3 3.8 0.3 50 4.1 WSW 24 39 13 21 1015.1 - 0.2
17/10:30pm 10.6 4.6 0.9 51 4.0 WSW 22 32 12 17 1015.0 - 0.2
17/10:00pm 10.4 5.2 2.3 57 3.5 W 19 32 10 17 1014.8 - 0.2
17/09:30pm 10.9 3.6 2.7 57 3.5 WSW 30 43 16 23 1014.4 - 0.2
17/09:01pm 11.4 4.1 4.6 63 3.1 SW 32 50 17 27 1013.9 - 0.2
17/09:00pm 11.4 3.9 4.6 63 3.1 SW 33 50 18 27 1013.8 1013.8 0.2
17/08:30pm 12.2 6.4 6.3 67 2.8 SW 26 35 14 19 1012.7 - 0.2
17/08:00pm 12.1 7.0 7.6 74 2.2 SSW 24 30 13 16 1012.2 - 0.2
17/07:30pm 12.4 10.0 8.7 78 1.8 SW 11 17 6 9 1011.4 - 0.2
17/07:00pm 13.3 11.8 9.0 75 2.2 ENE 7 9 4 5 1010.8 - 0.2
17/06:30pm 13.9 12.0 9.1 73 2.4 E 9 13 5 7 1010.4 - 0.2
17/06:00pm 13.8 11.4 8.8 72 2.5 ESE 11 17 6 9 1010.0 1010.0 0.2
17/05:30pm 14.9 12.6 9.1 68 3.0 SE 11 19 6 10 1009.4 - 0.2
17/05:00pm 18.7 14.0 0.8 30 8.0 WSW 15 30 8 16 1008.7 - 0.2
17/04:30pm 18.9 14.3 5.4 41 6.6 WSW 19 28 10 15 1008.1 - 0.2
17/04:00pm 17.9 15.0 6.7 48 5.6 NW 11 20 6 11 1007.9 - 0.2
17/03:30pm 18.6 16.2 6.8 46 5.9 SSW 9 13 5 7 1007.6 - 0.2
17/03:00pm 18.3 15.9 7.1 48 5.6 S 9 11 5 6 1007.5 1007.5 0.2
17/02:30pm 17.5 11.5 3.4 39 6.5 SSW 24 32 13 17 1007.6 - 0.2
17/02:00pm 19.9 14.5 2.3 31 8.1 W 20 32 11 17 1007.4 - 0.2
17/01:30pm 19.5 14.1 2.4 32 7.9 W 20 26 11 14 1007.6 - 0.2
17/01:00pm 19.0 13.3 2.8 34 7.5 W 22 32 12 17 1007.8 - 0.2
17/12:30pm 18.8 12.7 2.6 34 7.5 W 24 39 13 21 1007.7 - 0.2
17/12:00pm 18.6 11.8 2.9 35 7.3 WSW 28 37 15 20 1008.2 1008.2 0.2
17/11:50am 18.4 11.4 1.9 33 7.5 WSW 28 46 15 25 1008.3 - 0.2
17/11:30am 16.9 11.6 3.2 40 6.3 W 20 33 11 18 1008.7 - 0.2
17/11:00am 17.8 13.0 4.4 41 6.4 W 19 26 10 14 1008.9 - 0.0
17/10:30am 16.4 11.4 3.5 42 5.9 W 19 24 10 13 1009.3 - 0.0
17/10:00am 15.9 11.3 6.3 53 4.7 W 20 30 11 16 1009.8 - 0.0
17/09:30am 15.5 13.3 7.8 60 3.9 S 9 15 5 8 1010.1 - 0.0
17/09:00am 15.4 12.0 7.7 60 3.8 SSW 15 20 8 11 1010.3 1010.3 6.8
17/08:30am 14.7 10.9 7.5 62 3.6 SSW 17 20 9 11 1010.6 - 6.8
17/08:00am 14.0 10.1 7.1 63 3.4 SSW 17 20 9 11 1010.6 - 6.8
17/07:30am 12.0 10.8 6.5 69 2.6 E 2 9 1 5 1010.6 - 6.8
17/07:00am 12.9 9.5 6.0 63 3.3 SW 13 17 7 9 1010.2 - 6.8
17/06:30am 12.4 8.5 5.3 62 3.3 SW 15 20 8 11 1010.1 - 6.8
17/06:00am 12.1 9.0 5.5 64 3.1 SW 11 19 6 10 1009.8 1009.8 6.8
17/05:30am 11.9 9.6 5.5 65 3.0 SW 7 11 4 6 1009.7 - 6.8
17/05:00am 12.0 9.0 5.9 66 2.9 WSW 11 15 6 8 1009.2 - 6.8
17/04:30am 13.4 9.6 5.8 60 3.6 SSW 15 24 8 13 1008.9 - 6.8
17/04:00am 12.1 9.0 5.7 65 3.0 WSW 11 20 6 11 1008.7 - 6.8
17/03:30am 13.3 9.2 6.4 63 3.3 WSW 17 26 9 14 1008.4 - 6.8
17/03:00am 13.2 8.7 6.8 65 3.1 WSW 20 26 11 14 1008.2 1008.2 6.8
17/02:30am 13.3 11.3 7.1 66 3.0 NNW 7 13 4 7 1008.3 - 6.8
17/02:00am 13.6 11.2 7.2 65 3.1 SW 9 13 5 7 1008.4 - 6.8
17/01:30am 13.6 9.8 7.6 67 3.0 SW 17 22 9 12 1008.6 - 6.8
17/01:00am 13.8 11.7 8.2 69 2.8 SW 9 15 5 8 1008.6 - 6.8
17/12:30am 13.4 10.2 8.5 72 2.5 WSW 15 20 8 11 1008.4 - 6.8
17/12:00am 13.4 11.2 9.3 76 2.1 WSW 11 17 6 9 1008.4 1008.4 6.8
 
Date/Time
EST
Temp
°C
App
Temp
°C
Dew
Point
Rel
Hum
%
Delta-T
°C
Wind Press
QNH
hPa
Press
MSL
hPa
Rain
since 9 am
mm
Dir
 
Spd
km/h
Gust
km/h
Spd
kts
Gust
kts
16/11:30pm 11.7 11.3 11.2 97 0.3 SSW 4 9 2 5 1008.4 - 6.8
16/11:00pm 12.3 12.1 11.8 97 0.3 SE 4 7 2 4 1008.5 - 6.8
16/10:30pm 11.9 11.9 11.0 94 0.5 WNW 2 7 1 4 1008.5 - 6.8
16/10:00pm 12.5 10.8 11.1 91 0.7 NNW 11 13 6 7 1008.5 - 6.8
16/09:30pm 12.5 11.8 11.4 93 0.6 S 6 9 3 5 1008.4 - 6.8
16/09:00pm 13.4 12.3 11.8 90 0.9 SW 9 13 5 7 1008.7 1008.7 6.8
16/08:30pm 14.0 11.7 11.9 87 1.1 SW 15 20 8 11 1008.7 - 6.8
16/08:00pm 14.0 11.9 12.4 90 0.9 SW 15 19 8 10 1008.2 - 6.6
16/07:30pm 13.9 11.6 13.1 95 0.4 SSW 17 20 9 11 1007.5 - 6.6
16/07:00pm 14.4 14.1 13.4 94 0.6 W 7 11 4 6 1006.9 - 6.6
16/06:30pm 14.8 14.5 14.3 97 0.3 S 9 13 5 7 1006.7 - 6.6
16/06:00pm 15.4 17.0 14.9 97 0.3 CALM 0 6 0 3 1006.3 1006.3 6.6
16/05:30pm 15.8 15.7 15.0 95 0.5 WSW 9 15 5 8 1005.8 - 6.6
16/05:00pm 16.1 16.4 15.0 93 0.6 N 7 11 4 6 1005.5 - 6.2
16/04:30pm 16.1 15.7 15.1 94 0.6 S 11 19 6 10 1005.5 - 6.2
16/04:00pm 16.1 15.7 15.1 94 0.6 NE 11 20 6 11 1004.8 - 5.2
16/03:30pm 16.0 14.8 15.0 94 0.6 ENE 15 20 8 11 1004.8 - 4.0
16/02:30pm 17.9 16.0 14.2 79 2.1 E 17 22 9 12 1005.1 - 0.2
16/02:00pm 18.2 15.3 13.9 76 2.5 ESE 22 28 12 15 1005.3 - 0.2
16/01:30pm 19.5 17.3 15.0 75 2.6 SE 20 28 11 15 1005.2 - 0.2
16/01:00pm 18.8 16.4 14.3 75 2.6 SE 20 26 11 14 1005.6 - 0.2
16/12:30pm 20.5 19.1 12.2 59 4.7 E 11 15 6 8 1006.3 - 0.2
16/12:00pm 20.6 20.7 13.8 65 3.9 E 6 9 3 5 1006.9 1006.9 0.2
16/11:30am 18.7 18.7 14.2 75 2.6 SE 7 13 4 7 1007.7 - 0.0
16/11:00am 17.6 17.6 13.5 77 2.3 SE 6 7 3 4 1008.7 - 0.0
16/10:30am 16.0 15.8 13.7 86 1.3 S 7 11 4 6 1009.5 - 0.0
16/10:00am 15.1 16.2 13.6 91 0.8 CALM 0 7 0 4 1009.9 - 0.0
16/09:30am 14.2 15.2 13.2 94 0.6 CALM 0 0 0 0 1010.1 - 0.0
16/09:00am 13.8 13.5 13.3 97 0.3 SSW 7 9 4 5 1010.1 1010.1 7.0
16/08:30am 13.8 13.8 13.6 99 0.1 S 6 9 3 5 1010.3 - 7.0
16/08:00am 13.4 13.6 13.2 99 0.1 ENE 4 7 2 4 1010.4 - 7.0
16/07:30am 12.8 11.9 12.6 99 0.1 W 9 17 5 9 1010.8 - 7.0
16/07:00am 12.3 9.3 12.1 99 0.1 NNW 19 24 10 13 1010.7 - 7.0
16/06:30am 11.9 11.1 11.7 99 0.1 WSW 7 9 4 5 1010.3 - 7.0
16/06:00am 11.8 11.0 11.6 99 0.1 SSW 7 11 4 6 1011.1 1011.1 7.0
16/05:30am 12.1 11.4 11.9 99 0.1 NW 7 11 4 6 1012.0 - 7.0
16/05:00am 11.7 10.8 11.5 99 0.1 SE 7 9 4 5 1011.3 - 6.0
16/04:30am 12.0 12.6 11.8 99 0.1 CALM 0 0 0 0 1011.8 - 6.0
16/04:00am 11.9 12.4 11.7 99 0.1 CALM 0 0 0 0 1011.7 - 6.0
16/03:30am 12.4 13.1 12.2 99 0.1 CALM 0 0 0 0 1011.6 - 6.0
16/03:00am 12.3 13.0 12.1 99 0.1 CALM 0 0 0 0 1011.8 1011.8 6.0
16/02:30am 12.5 13.2 12.3 99 0.1 CALM 0 0 0 0 1012.0 - 5.6
16/02:00am 12.4 11.4 12.2 99 0.1 SSW 9 13 5 7 1012.3 - 5.6
16/01:30am 12.3 11.6 12.1 99 0.1 SW 7 9 4 5 1012.7 - 5.6
16/01:00am 12.4 13.1 12.2 99 0.1 CALM 0 0 0 0 1012.8 - 5.6
16/12:30am 12.5 13.2 12.3 99 0.1 CALM 0 0 0 0 1013.3 - 5.6
16/12:00am 12.7 13.5 12.5 99 0.1 CALM 0 7 0 4 1013.8 1013.8 5.6
 
Date/Time
EST
Temp
°C
App
Temp
°C
Dew
Point
Rel
Hum
%
Delta-T
°C
Wind Press
QNH
hPa
Press
MSL
hPa
Rain
since 9 am
mm
Dir
 
Spd
km/h
Gust
km/h
Spd
kts
Gust
kts
15/11:30pm 12.8 12.5 12.6 99 0.1 S 6 7 3 4 1014.3 - 5.4
15/11:00pm 12.9 13.7 12.4 97 0.3 CALM 0 0 0 0 1014.5 - 5.2
15/10:30pm 13.2 14.0 12.7 97 0.3 CALM 0 0 0 0 1014.9 - 3.2
15/10:00pm 13.4 14.1 12.3 93 0.6 CALM 0 0 0 0 1015.0 - 0.6
15/09:30pm 13.5 14.1 11.9 90 0.9 CALM 0 0 0 0 1015.2 - 0.0
15/09:00pm 13.7 14.2 11.7 88 1.1 CALM 0 0 0 0 1015.3 1015.4 0.0
15/08:30pm 13.8 14.3 11.7 87 1.1 CALM 0 6 0 3 1015.5 - 0.0
15/08:00pm 14.0 14.5 11.5 85 1.3 CALM 0 0 0 0 1015.3 - 0.0
15/07:30pm 14.1 14.6 11.6 85 1.3 CALM 0 0 0 0 1015.3 - 0.0
15/07:00pm 14.1 13.5 11.8 86 1.2 NE 6 9 3 5 1015.2 - 0.0
15/06:30pm 14.1 12.9 11.6 85 1.3 NE 9 13 5 7 1015.1 - 0.0
15/06:00pm 14.3 12.7 11.6 84 1.4 NE 11 19 6 10 1015.1 1015.2 0.0
15/05:30pm 14.9 13.3 11.7 81 1.7 ENE 11 15 6 8 1014.9 - 0.0

Other Formats:

Comma delimited format used in spreadsheet applications
http://www.bom.gov.au/fwo/IDN60801/IDN60801.95931.axf

JavaScript Object Notation format (JSON) in row-major order
http://www.bom.gov.au/fwo/IDN60801/IDN60801.95931.json